createdAt,value
2019-02-24T00:00:01.796Z,153.87
2019-02-24T00:05:05.826Z,123.43
2019-02-24T00:10:11.294Z,140.70
2019-02-24T00:15:15.407Z,156.40
2019-02-24T00:20:19.482Z,142.60
2019-02-24T00:25:23.609Z,107.93
2019-02-24T00:30:27.798Z,128.77
2019-02-24T00:35:31.973Z,121.27
2019-02-24T00:40:35.893Z,124.13
2019-02-24T00:45:39.872Z,114.77
2019-02-24T00:50:43.880Z,110.97
2019-02-24T00:55:47.951Z,110.80
2019-02-24T01:00:51.875Z,121.70
2019-02-24T01:05:55.869Z,107.50
2019-02-24T01:10:59.798Z,120.20
2019-02-24T01:16:03.814Z,105.23
2019-02-24T01:21:07.982Z,117.20
2019-02-24T01:26:11.987Z,167.23
2019-02-24T01:31:17.446Z,121.13
2019-02-24T01:36:21.527Z,137.53
2019-02-24T01:41:25.699Z,290.93
2019-02-24T01:46:29.775Z,241.70
2019-02-24T01:51:33.999Z,329.20
2019-02-24T01:56:38.117Z,493.77
2019-02-24T02:01:42.255Z,511.40
2019-02-24T02:06:46.276Z,259.67
2019-02-24T02:11:50.301Z,349.30
2019-02-24T02:16:54.243Z,400.07
2019-02-24T02:21:58.368Z,751.73
2019-02-24T02:27:02.488Z,843.67
2019-02-24T02:32:06.784Z,895.43
2019-02-24T02:37:10.845Z,899.33
2019-02-24T02:42:14.879Z,684.30
2019-02-24T02:47:18.900Z,716.17
2019-02-24T02:52:23.017Z,792.67
2019-02-24T02:57:27.044Z,978.83
2019-02-24T03:02:31.084Z,1063.77
2019-02-24T03:07:35.137Z,899.90
2019-02-24T03:12:39.241Z,847.47
2019-02-24T03:17:43.364Z,916.03
2019-02-24T03:22:47.280Z,1076.53
2019-02-24T03:27:51.458Z,1209.27
2019-02-24T03:32:55.696Z,1151.07
2019-02-24T03:37:59.874Z,969.27
2019-02-24T03:43:03.803Z,990.87
2019-02-24T03:48:08.024Z,837.27
2019-02-24T03:53:12.054Z,463.70
2019-02-24T03:58:16.086Z,422.17
2019-02-24T04:03:20.299Z,569.83
2019-02-24T04:08:24.330Z,720.87
2019-02-24T04:13:28.464Z,814.93
2019-02-24T04:18:32.484Z,1003.67
2019-02-24T04:23:38.353Z,937.40
2019-02-24T04:28:42.368Z,989.90
2019-02-24T04:33:46.714Z,1251.17
2019-02-24T04:38:50.776Z,975.93
2019-02-24T04:43:54.969Z,852.40
2019-02-24T04:48:58.886Z,512.03
2019-02-24T04:54:02.882Z,437.23
2019-02-24T04:59:08.684Z,512.07
2019-02-24T05:04:13.015Z,658.97
2019-02-24T05:09:17.219Z,696.40
2019-02-24T05:14:21.275Z,484.10
2019-02-24T05:19:25.261Z,562.23
2019-02-24T05:24:29.371Z,919.03
2019-02-24T05:29:33.298Z,1024.27
2019-02-24T05:34:37.884Z,918.33
2019-02-24T05:39:42.003Z,1059.87
2019-02-24T05:44:46.181Z,1007.40
2019-02-24T05:49:50.263Z,1184.10
2019-02-24T05:54:54.160Z,1129.20
2019-02-24T05:59:58.103Z,1189.97
2019-02-24T06:05:02.141Z,1258.73
2019-02-24T06:10:06.539Z,1160.07
2019-02-24T06:15:10.806Z,1255.53
2019-02-24T06:20:14.719Z,1224.43
2019-02-24T06:25:18.746Z,1295.23
2019-02-24T06:30:22.744Z,1051.37
2019-02-24T06:35:27.008Z,1198.17
2019-02-24T06:40:31.029Z,1154.53
2019-02-24T06:45:35.367Z,1320.13
2019-02-24T06:50:39.384Z,1088.47
2019-02-24T06:55:43.509Z,1135.90
2019-02-24T07:00:47.534Z,1151.97
2019-02-24T07:05:51.665Z,1054.70
2019-02-24T07:10:55.894Z,1045.53
2019-02-24T07:15:59.984Z,1132.63
2019-02-24T07:21:03.989Z,1101.63
2019-02-24T07:26:08.177Z,1137.23
2019-02-24T07:31:12.575Z,1162.07
2019-02-24T07:36:16.749Z,976.93
2019-02-24T07:41:20.764Z,1186.07
2019-02-24T07:46:24.761Z,1063.83
2019-02-24T07:51:28.688Z,1062.30
2019-02-24T07:56:32.781Z,965.13
2019-02-24T08:01:36.773Z,815.50
2019-02-24T08:06:40.964Z,936.80
2019-02-24T08:11:45.084Z,830.23
2019-02-24T08:16:49.309Z,1038.93
2019-02-24T08:21:53.484Z,786.93
2019-02-24T08:26:57.608Z,816.90
2019-02-24T08:32:01.874Z,1046.50
2019-02-24T08:37:06.218Z,937.70
2019-02-24T08:42:10.459Z,637.27
2019-02-24T08:47:14.539Z,688.03
2019-02-24T08:52:18.559Z,658.87
2019-02-24T08:57:22.594Z,432.23
2019-02-24T09:02:29.697Z,479.43
2019-02-24T09:07:33.810Z,446.60
2019-02-24T09:12:37.836Z,321.07
2019-02-24T09:17:41.978Z,365.83
2019-02-24T09:22:46.041Z,265.27
2019-02-24T09:27:50.234Z,189.23
2019-02-24T09:32:54.343Z,169.97
2019-02-24T09:37:58.472Z,142.40
2019-02-24T09:43:02.442Z,124.60
2019-02-24T09:48:06.623Z,103.37
2019-02-24T09:53:12.186Z,85.40
2019-02-24T09:58:16.204Z,89.97
2019-02-24T10:03:20.353Z,82.73
2019-02-24T10:08:24.604Z,71.53
2019-02-24T10:13:28.695Z,62.70
2019-02-24T10:18:32.881Z,60.50
2019-02-24T10:23:39.450Z,82.83
2019-02-24T10:28:44.669Z,66.47
2019-02-24T10:33:48.852Z,57.97
2019-02-24T10:38:53.058Z,62.63
2019-02-24T10:43:57.217Z,63.27
2019-02-24T10:49:03.660Z,59.80
2019-02-24T10:54:07.248Z,54.47
2019-02-24T10:59:11.374Z,50.07
2019-02-24T11:04:15.469Z,55.73
2019-02-24T11:09:19.685Z,55.87
2019-02-24T11:14:23.910Z,55.73
2019-02-24T11:19:28.062Z,57.07
2019-02-24T11:24:32.147Z,60.47
2019-02-24T11:29:36.140Z,61.30
2019-02-24T11:34:40.177Z,56.60
2019-02-24T11:39:44.670Z,64.33
2019-02-24T11:44:48.837Z,76.03
2019-02-24T11:49:52.718Z,61.57
2019-02-24T11:54:56.722Z,64.90
2019-02-24T12:00:00.807Z,64.27
2019-02-24T12:05:05.265Z,62.70
2019-02-24T12:10:09.504Z,67.53
2019-02-24T12:15:13.497Z,61.10
2019-02-24T12:20:17.529Z,61.83
2019-02-24T12:25:21.663Z,65.97
2019-02-24T12:30:26.955Z,67.27
2019-02-24T12:35:31.243Z,72.30
2019-02-24T12:40:35.373Z,64.87
2019-02-24T12:45:39.389Z,65.70
2019-02-24T12:50:43.428Z,68.70
2019-02-24T12:55:47.465Z,67.00
2019-02-24T13:00:51.453Z,69.97
2019-02-24T13:05:55.388Z,71.77
2019-02-24T13:10:59.310Z,64.53
2019-02-24T13:16:03.721Z,72.43
2019-02-24T13:21:08.682Z,70.80
2019-02-24T13:26:12.718Z,67.40
2019-02-24T13:31:16.902Z,69.97
2019-02-24T13:36:21.237Z,65.37
2019-02-24T13:41:25.520Z,76.03
2019-02-24T13:46:29.647Z,68.10
2019-02-24T13:51:33.559Z,66.33
2019-02-24T13:56:37.853Z,63.07
2019-02-24T14:01:42.092Z,69.13
2019-02-24T14:06:46.214Z,69.63
2019-02-24T14:11:50.439Z,68.03
2019-02-24T14:16:54.453Z,61.63
2019-02-24T14:21:58.637Z,68.73
2019-02-24T14:27:02.768Z,68.63
2019-02-24T14:32:06.899Z,64.83
2019-02-24T14:37:11.125Z,65.30
2019-02-24T14:42:15.152Z,65.17
2019-02-24T14:47:19.222Z,61.93
2019-02-24T14:52:23.561Z,62.73
2019-02-24T14:57:27.786Z,67.50
2019-02-24T15:02:31.967Z,64.63
2019-02-24T15:07:35.993Z,73.57
2019-02-24T15:12:40.043Z,64.47
2019-02-24T15:17:44.302Z,64.37
2019-02-24T15:22:48.758Z,67.53
2019-02-24T15:27:52.881Z,67.80
2019-02-24T15:32:58.583Z,62.73
2019-02-24T15:38:05.465Z,68.70
2019-02-24T15:43:09.494Z,61.57
2019-02-24T15:48:14.913Z,65.07
2019-02-24T15:53:19.245Z,65.87
2019-02-24T15:58:23.317Z,69.83
2019-02-24T16:03:27.399Z,66.43
2019-02-24T16:08:31.573Z,66.80
2019-02-24T16:13:35.903Z,59.40
2019-02-24T16:18:39.982Z,66.23
2019-02-24T16:23:44.258Z,61.43
2019-02-24T16:28:50.796Z,69.23
2019-02-24T16:33:55.038Z,67.07
2019-02-24T16:38:59.110Z,64.23
2019-02-24T16:44:03.067Z,59.07
2019-02-24T16:49:07.044Z,67.80
2019-02-24T16:54:11.074Z,58.30
2019-02-24T16:59:15.174Z,59.40
2019-02-24T17:04:19.384Z,62.30
2019-02-24T17:09:23.513Z,73.20
2019-02-24T17:14:27.695Z,61.20
2019-02-24T17:19:31.775Z,73.03
2019-02-24T17:24:35.994Z,77.53
2019-02-24T17:29:40.080Z,170.13
2019-02-24T17:34:44.030Z,161.83
2019-02-24T17:39:48.227Z,113.40
2019-02-24T17:44:52.530Z,69.03
2019-02-24T17:49:56.689Z,77.47
2019-02-24T17:55:00.694Z,64.93
2019-02-24T18:00:07.807Z,86.13
2019-02-24T18:05:11.878Z,87.23
2019-02-24T18:10:16.147Z,66.83
2019-02-24T18:15:20.359Z,76.90
2019-02-24T18:20:24.659Z,80.83
2019-02-24T18:25:28.805Z,93.53
2019-02-24T18:30:32.967Z,80.63
2019-02-24T18:35:37.083Z,88.43
2019-02-24T18:40:41.130Z,85.93
2019-02-24T18:45:45.360Z,95.37
2019-02-24T18:50:49.391Z,105.07
2019-02-24T18:55:53.458Z,104.93
2019-02-24T19:00:57.539Z,95.23
2019-02-24T19:06:02.955Z,98.33
2019-02-24T19:11:07.047Z,107.90
2019-02-24T19:16:13.530Z,118.43
2019-02-24T19:21:17.615Z,121.90
2019-02-24T19:26:21.966Z,105.97
2019-02-24T19:31:28.739Z,130.90
2019-02-24T19:36:32.996Z,125.40
2019-02-24T19:41:36.966Z,126.23
2019-02-24T19:46:42.282Z,123.20
2019-02-24T19:51:46.551Z,115.90
2019-02-24T19:56:50.836Z,115.17
2019-02-24T20:01:54.956Z,137.80
2019-02-24T20:06:58.957Z,125.60
2019-02-24T20:12:04.601Z,147.47
2019-02-24T20:17:08.726Z,128.23
2019-02-24T20:22:12.910Z,146.87
2019-02-24T20:27:17.233Z,162.67
2019-02-24T20:32:21.684Z,209.00
2019-02-24T20:37:27.639Z,172.57
2019-02-24T20:42:31.822Z,156.67
2019-02-24T20:47:36.158Z,133.03
2019-02-24T20:52:40.241Z,131.47
2019-02-24T20:57:44.417Z,122.97
2019-02-24T21:02:48.701Z,137.73
2019-02-24T21:07:52.721Z,125.83
2019-02-24T21:12:56.741Z,201.73
2019-02-24T21:18:00.770Z,195.40
2019-02-24T21:23:04.928Z,126.50
2019-02-24T21:28:09.219Z,167.90
2019-02-24T21:33:13.261Z,128.03
2019-02-24T21:38:17.400Z,139.33
2019-02-24T21:43:21.631Z,163.83
2019-02-24T21:48:25.963Z,177.10
2019-02-24T21:53:29.971Z,233.70
2019-02-24T21:58:33.917Z,170.43
2019-02-24T22:03:37.922Z,153.23
2019-02-24T22:08:42.940Z,133.57
2019-02-24T22:13:47.101Z,113.40
2019-02-24T22:18:51.231Z,106.03
2019-02-24T22:23:55.202Z,169.77
2019-02-24T22:28:59.385Z,136.37
2019-02-24T22:34:03.617Z,178.10
2019-02-24T22:39:07.835Z,506.77
2019-02-24T22:44:12.215Z,941.23
2019-02-24T22:49:16.505Z,1198.27
2019-02-24T22:54:20.636Z,1058.03
2019-02-24T22:59:24.617Z,666.97
2019-02-24T23:04:28.834Z,580.27
2019-02-24T23:09:33.011Z,302.53
2019-02-24T23:14:37.186Z,249.27
2019-02-24T23:19:41.375Z,305.20
2019-02-24T23:24:45.506Z,131.80
2019-02-24T23:29:49.385Z,222.50
2019-02-24T23:34:53.362Z,328.73
2019-02-24T23:39:57.471Z,253.50
2019-02-24T23:45:09.756Z,532.20
2019-02-24T23:50:07.270Z,519.27
2019-02-24T23:55:11.302Z,412.27
